createdAt,value
2023-04-12T00:01:00.233Z,2.55
2023-04-12T00:03:36.031Z,2.60
2023-04-12T00:06:09.396Z,2.70
2023-04-12T00:08:40.913Z,2.35
2023-04-12T00:11:11.438Z,2.58
2023-04-12T00:13:43.547Z,2.25
2023-04-12T00:16:21.068Z,2.30
2023-04-12T00:18:53.779Z,2.50
2023-04-12T00:21:25.917Z,2.38
2023-04-12T00:23:57.408Z,2.28
2023-04-12T00:26:29.330Z,2.20
2023-04-12T00:29:00.396Z,2.50
2023-04-12T00:31:32.523Z,2.35
2023-04-12T00:34:02.526Z,2.50
2023-04-12T00:36:32.348Z,2.65
2023-04-12T00:39:02.097Z,2.50
2023-04-12T00:41:31.890Z,2.00
2023-04-12T00:44:01.559Z,2.42
2023-04-12T00:46:31.689Z,3.28
2023-04-12T00:49:01.463Z,2.60
2023-04-12T00:51:34.924Z,2.35
2023-04-12T00:54:05.244Z,9.77
2023-04-12T00:56:35.314Z,23.30
2023-04-12T00:59:05.722Z,31.17
2023-04-12T01:01:38.572Z,101.18
2023-04-12T01:04:11.116Z,139.82
2023-04-12T01:07:06.318Z,172.18
2023-04-12T01:10:18.210Z,230.10
2023-04-12T01:13:12.363Z,260.15
2023-04-12T01:16:09.392Z,220.40
2023-04-12T01:18:47.916Z,219.32
2023-04-12T01:21:21.159Z,222.27
2023-04-12T01:24:31.669Z,273.27
2023-04-12T01:27:03.621Z,244.20
2023-04-12T01:29:45.405Z,208.27
2023-04-12T01:32:22.489Z,182.00
2023-04-12T01:34:58.356Z,144.60
2023-04-12T01:37:28.784Z,127.30
2023-04-12T01:40:00.165Z,138.20
2023-04-12T01:42:30.114Z,116.18
2023-04-12T01:45:03.553Z,103.18
2023-04-12T01:47:54.198Z,82.53
2023-04-12T01:50:27.753Z,57.78
2023-04-12T01:53:06.554Z,46.10
2023-04-12T01:55:36.276Z,41.28
2023-04-12T01:58:05.993Z,34.58
2023-04-12T02:00:35.739Z,30.40
2023-04-12T02:03:07.232Z,23.15
2023-04-12T02:05:37.204Z,18.60
2023-04-12T02:08:06.902Z,16.17
2023-04-12T02:10:39.177Z,12.40
2023-04-12T02:13:11.921Z,10.27
2023-04-12T02:15:45.723Z,8.48
2023-04-12T02:18:18.411Z,7.18
2023-04-12T02:20:48.928Z,7.05
2023-04-12T02:23:18.792Z,5.88
2023-04-12T02:25:48.721Z,5.97
2023-04-12T02:28:21.427Z,5.95
2023-04-12T02:30:55.274Z,4.78
2023-04-12T02:33:40.057Z,4.15
2023-04-12T02:36:12.925Z,4.22
2023-04-12T02:38:42.686Z,4.60
2023-04-12T02:57:44.246Z,6.30
2023-04-12T03:00:18.127Z,4.95
2023-04-12T03:02:47.835Z,6.38
2023-04-12T03:05:21.038Z,5.55
2023-04-12T03:07:52.198Z,4.97
2023-04-12T03:10:21.937Z,4.22
2023-04-12T03:12:52.781Z,4.28
2023-04-12T03:15:25.367Z,4.20
2023-04-12T03:17:58.635Z,3.63
2023-04-12T03:20:30.278Z,3.88
2023-04-12T03:23:00.218Z,3.53
2023-04-12T03:25:30.605Z,4.25
2023-04-12T03:28:01.480Z,3.90
2023-04-12T03:30:42.053Z,3.75
2023-04-12T03:33:12.157Z,3.75
2023-04-12T03:35:42.554Z,3.45
2023-04-12T03:38:19.363Z,3.25
2023-04-12T03:40:50.297Z,3.88
2023-04-12T03:43:20.330Z,3.13
2023-04-12T03:45:52.917Z,3.42
2023-04-12T03:48:26.299Z,3.42
2023-04-12T03:50:58.361Z,3.65
2023-04-12T03:53:36.139Z,3.30
2023-04-12T03:56:07.374Z,3.47
2023-04-12T03:58:38.522Z,3.05
2023-04-12T04:01:08.912Z,3.10
2023-04-12T04:03:40.962Z,3.60
2023-04-12T04:06:14.009Z,3.15
2023-04-12T04:08:45.354Z,3.58
2023-04-12T04:11:19.070Z,3.40
2023-04-12T04:13:52.581Z,3.38
2023-04-12T04:16:22.973Z,3.50
2023-04-12T04:18:54.798Z,3.25
2023-04-12T04:21:25.778Z,3.33
2023-04-12T04:23:56.294Z,3.40
2023-04-12T04:26:45.574Z,3.60
2023-04-12T04:29:15.421Z,3.13
2023-04-12T04:31:48.367Z,4.05
2023-04-12T04:34:18.720Z,3.17
2023-04-12T04:36:49.273Z,4.30
2023-04-12T04:39:23.158Z,3.15
2023-04-12T04:41:59.635Z,2.95
2023-04-12T04:44:33.746Z,3.15
2023-04-12T04:47:05.409Z,3.35
2023-04-12T04:49:35.833Z,2.85
2023-04-12T04:52:09.747Z,3.25
2023-04-12T04:54:44.359Z,3.33
2023-04-12T04:57:17.410Z,3.13
2023-04-12T04:59:48.715Z,3.00
2023-04-12T05:02:19.618Z,4.32
2023-04-12T05:04:49.804Z,3.17
2023-04-12T05:07:19.441Z,3.38
2023-04-12T05:09:49.122Z,3.40
2023-04-12T05:12:18.787Z,4.07
2023-04-12T05:14:51.643Z,5.40
2023-04-12T05:17:22.319Z,4.53
2023-04-12T05:19:53.754Z,4.95
2023-04-12T05:22:27.329Z,4.75
2023-04-12T05:24:57.664Z,4.75
2023-04-12T05:27:30.284Z,4.45
2023-04-12T05:30:01.141Z,4.57
2023-04-12T05:32:31.293Z,7.30
2023-04-12T05:35:01.068Z,6.93
2023-04-12T05:37:31.402Z,7.97
2023-04-12T05:40:04.257Z,8.13
2023-04-12T05:42:34.391Z,8.30
2023-04-12T05:45:04.580Z,8.93
2023-04-12T05:47:34.937Z,10.13
2023-04-12T05:50:07.071Z,10.82
2023-04-12T05:52:37.461Z,13.88
2023-04-12T05:55:08.547Z,14.05
2023-04-12T05:57:38.860Z,15.18
2023-04-12T06:00:27.220Z,16.35
2023-04-12T06:03:08.819Z,16.30
2023-04-12T06:05:40.422Z,15.00
2023-04-12T06:08:11.364Z,14.45
2023-04-12T06:10:41.030Z,13.52
2023-04-12T06:13:10.763Z,13.88
2023-04-12T06:15:41.548Z,11.50
2023-04-12T06:18:13.886Z,11.60
2023-04-12T06:20:43.661Z,10.77
2023-04-12T06:23:13.355Z,10.07
2023-04-12T06:25:42.992Z,10.75
2023-04-12T06:28:14.080Z,9.77
2023-04-12T06:30:44.316Z,10.02
2023-04-12T06:33:14.651Z,9.10
2023-04-12T06:35:44.423Z,9.10
2023-04-12T06:38:14.179Z,7.50
2023-04-12T06:40:46.795Z,8.20
2023-04-12T06:43:22.184Z,8.35
2023-04-12T06:48:21.504Z,6.25
2023-04-12T06:50:51.254Z,7.28
2023-04-12T06:53:20.914Z,6.80
2023-04-12T06:55:50.840Z,6.22
2023-04-12T06:58:21.669Z,6.10
2023-04-12T07:00:52.205Z,5.43
2023-04-12T07:03:22.435Z,5.65
2023-04-12T07:05:52.321Z,6.38
2023-04-12T07:08:22.462Z,5.28
2023-04-12T07:10:56.569Z,5.03
2023-04-12T07:13:26.469Z,4.97
2023-04-12T07:15:56.434Z,4.68
2023-04-12T07:18:26.519Z,5.05
2023-04-12T07:20:59.316Z,4.63
2023-04-12T07:23:29.223Z,4.97
2023-04-12T07:26:02.915Z,5.13
2023-04-12T07:28:33.012Z,4.80
2023-04-12T07:31:03.532Z,4.75
2023-04-12T07:33:35.992Z,4.40
2023-04-12T07:36:06.431Z,4.43
2023-04-12T07:38:36.101Z,4.38
2023-04-12T07:41:05.896Z,4.53
2023-04-12T07:43:37.055Z,4.50
2023-04-12T07:46:10.017Z,4.07
2023-04-12T07:48:39.739Z,3.65
2023-04-12T07:51:09.536Z,4.25
2023-04-12T07:53:39.225Z,3.90
2023-04-12T07:56:09.208Z,4.13
2023-04-12T07:58:41.523Z,4.30
2023-04-12T08:01:11.167Z,3.38
2023-04-12T08:03:40.996Z,3.60
2023-04-12T08:06:11.689Z,3.22
2023-04-12T08:08:41.525Z,3.00
2023-04-12T08:11:14.909Z,3.80
2023-04-12T08:13:44.608Z,3.65
2023-04-12T08:16:14.768Z,3.47
2023-04-12T08:18:44.559Z,3.47
2023-04-12T08:21:14.262Z,3.28
2023-04-12T08:23:44.161Z,3.20
2023-04-12T08:26:16.622Z,3.05
2023-04-12T08:28:46.421Z,3.08
2023-04-12T08:31:16.515Z,3.67
2023-04-12T08:33:46.445Z,3.38
2023-04-12T08:36:17.682Z,3.20
2023-04-12T08:38:48.585Z,3.42
2023-04-12T08:41:19.394Z,3.72
2023-04-12T08:43:50.189Z,3.53
2023-04-12T08:46:19.899Z,3.35
2023-04-12T08:48:51.205Z,3.63
2023-04-12T08:51:22.602Z,2.90
2023-04-12T08:53:52.775Z,2.90
2023-04-12T08:56:23.530Z,3.55
2023-04-12T08:58:57.782Z,3.17
2023-04-12T09:01:27.507Z,2.83
2023-04-12T09:03:58.357Z,3.53
2023-04-12T09:06:29.488Z,2.83
2023-04-12T09:09:01.391Z,3.05
2023-04-12T09:11:31.196Z,2.83
2023-04-12T09:14:01.109Z,3.08
2023-04-12T09:16:57.481Z,2.85
2023-04-12T09:22:06.963Z,3.15
2023-04-12T09:24:49.893Z,2.40
2023-04-12T09:27:22.632Z,3.00
2023-04-12T09:29:53.584Z,3.08
2023-04-12T09:32:29.434Z,3.20
2023-04-12T09:35:02.074Z,2.42
2023-04-12T09:37:31.810Z,2.92
2023-04-12T09:40:07.569Z,3.08
2023-04-12T09:42:38.314Z,2.58
2023-04-12T09:45:42.997Z,3.50
2023-04-12T09:48:22.913Z,3.50
2023-04-12T09:50:52.576Z,2.58
2023-04-12T09:53:23.688Z,2.83
2023-04-12T09:55:53.365Z,2.97
2023-04-12T09:58:23.813Z,2.70
2023-04-12T10:00:53.505Z,3.00
2023-04-12T10:03:24.083Z,2.80
2023-04-12T10:05:54.789Z,2.88
2023-04-12T10:08:27.962Z,3.35
2023-04-12T10:10:58.660Z,2.78
2023-04-12T10:13:28.573Z,3.35
2023-04-12T10:15:58.352Z,3.05
2023-04-12T10:18:28.624Z,3.38
2023-04-12T10:20:58.322Z,2.58
2023-04-12T10:23:29.313Z,3.15
2023-04-12T10:25:59.051Z,2.88
2023-04-12T10:28:28.748Z,2.88
2023-04-12T10:31:01.265Z,2.92
2023-04-12T10:33:32.303Z,2.70
2023-04-12T10:36:05.274Z,3.00
2023-04-12T10:38:49.116Z,2.70
2023-04-12T10:41:21.467Z,2.63
2023-04-12T10:43:51.824Z,3.05
2023-04-12T10:46:42.863Z,3.30
2023-04-12T10:49:16.024Z,2.35
2023-04-12T10:52:07.351Z,3.00
2023-04-12T10:54:37.290Z,3.15
2023-04-12T10:57:07.425Z,3.10
2023-04-12T10:59:58.790Z,2.85
2023-04-12T11:02:29.106Z,2.95
2023-04-12T11:05:13.471Z,2.92
2023-04-12T11:07:44.061Z,2.92
2023-04-12T11:10:17.991Z,3.55
2023-04-12T11:13:03.101Z,3.17
2023-04-12T11:15:33.792Z,4.27
2023-04-12T11:18:03.507Z,3.97
2023-04-12T11:20:35.786Z,4.05
2023-04-12T11:23:09.969Z,4.00
2023-04-12T11:28:25.190Z,4.10
2023-04-12T11:30:58.512Z,4.90
2023-04-12T11:33:35.966Z,5.18
2023-04-12T11:36:16.648Z,4.93
2023-04-12T11:38:49.707Z,4.65
2023-04-12T11:41:20.164Z,4.10
2023-04-12T11:43:49.877Z,4.68
2023-04-12T11:46:20.101Z,4.43
2023-04-12T11:48:49.927Z,5.28
2023-04-12T11:51:32.356Z,4.90
2023-04-12T11:54:02.662Z,4.93
2023-04-12T11:56:34.364Z,4.85
2023-04-12T11:59:03.996Z,4.88
2023-04-12T12:01:34.212Z,4.30
2023-04-12T12:04:05.368Z,4.93
2023-04-12T12:06:35.741Z,5.18
2023-04-12T12:09:05.825Z,5.32
2023-04-12T12:11:35.907Z,4.55
2023-04-12T12:14:06.532Z,5.35
2023-04-12T12:16:40.229Z,5.88
2023-04-12T12:19:10.275Z,5.25
2023-04-12T12:21:40.006Z,5.07
2023-04-12T12:24:10.403Z,5.70
2023-04-12T12:26:41.356Z,6.18
2023-04-12T12:29:18.331Z,5.80
2023-04-12T12:31:53.879Z,6.15
2023-04-12T12:34:24.078Z,6.05
2023-04-12T12:37:00.116Z,6.00
2023-04-12T12:39:30.152Z,6.45
2023-04-12T12:41:59.862Z,5.70
2023-04-12T12:44:29.484Z,6.78
2023-04-12T12:47:10.076Z,5.40
2023-04-12T12:49:43.603Z,5.90
2023-04-12T12:52:14.289Z,5.60
2023-04-12T12:54:46.428Z,6.20
2023-04-12T12:57:17.062Z,6.65
2023-04-12T12:59:46.909Z,5.45
2023-04-12T13:02:19.901Z,6.70
2023-04-12T13:04:49.882Z,6.10
2023-04-12T13:07:20.921Z,6.03
2023-04-12T13:09:51.049Z,7.22
2023-04-12T13:12:24.492Z,6.07
2023-04-12T13:15:03.038Z,5.60
2023-04-12T13:17:45.582Z,6.28
2023-04-12T13:20:15.313Z,6.90
2023-04-12T13:22:44.915Z,6.22
2023-04-12T13:25:14.539Z,6.28
2023-04-12T13:27:44.216Z,6.30
2023-04-12T13:30:14.146Z,6.00
2023-04-12T13:32:44.259Z,5.03
2023-04-12T13:35:17.964Z,6.65
2023-04-12T13:37:48.167Z,5.43
2023-04-12T13:40:17.976Z,7.95
2023-04-12T13:42:48.062Z,5.90
2023-04-12T13:45:17.884Z,5.93
2023-04-12T13:47:47.598Z,6.55
2023-04-12T13:50:20.143Z,7.38
2023-04-12T13:52:50.216Z,5.88
2023-04-12T13:55:19.853Z,6.45
2023-04-12T13:57:49.535Z,6.40
2023-04-12T14:00:19.960Z,6.28
2023-04-12T14:02:49.807Z,6.50
2023-04-12T14:05:19.460Z,8.43
2023-04-12T14:07:51.374Z,5.82
2023-04-12T14:10:21.780Z,5.97
2023-04-12T14:12:51.564Z,6.88
2023-04-12T14:15:21.348Z,5.72
2023-04-12T14:17:51.233Z,5.80
2023-04-12T14:20:21.809Z,5.90
2023-04-12T14:22:51.858Z,5.43
2023-04-12T14:25:21.968Z,6.50
2023-04-12T14:27:52.489Z,5.20
2023-04-12T14:30:22.105Z,5.57
2023-04-12T14:32:52.278Z,8.38
2023-04-12T14:35:21.943Z,6.28
2023-04-12T14:37:51.638Z,6.13
2023-04-12T14:40:21.362Z,5.72
2023-04-12T14:42:50.967Z,5.63
2023-04-12T14:45:22.429Z,5.57
2023-04-12T14:47:52.126Z,5.95
2023-04-12T14:50:23.223Z,6.13
2023-04-12T14:52:52.882Z,5.85
2023-04-12T14:55:25.791Z,6.45
2023-04-12T14:57:55.464Z,6.22
2023-04-12T15:00:25.345Z,5.90
2023-04-12T15:02:55.509Z,6.10
2023-04-12T15:05:25.981Z,5.45
2023-04-12T15:07:59.002Z,6.22
2023-04-12T15:10:30.106Z,6.13
2023-04-12T15:13:03.277Z,6.45
2023-04-12T15:15:33.001Z,6.30
2023-04-12T15:18:04.775Z,6.20
2023-04-12T15:20:34.683Z,6.60
2023-04-12T15:23:04.706Z,5.75
2023-04-12T15:25:34.977Z,5.60
2023-04-12T15:28:04.736Z,5.88
2023-04-12T15:30:34.349Z,5.38
2023-04-12T15:33:04.527Z,5.88
2023-04-12T15:35:34.247Z,6.05
2023-04-12T15:38:04.342Z,6.63
2023-04-12T15:40:34.016Z,6.15
2023-04-12T15:43:03.744Z,6.45
2023-04-12T15:45:33.451Z,5.38
2023-04-12T15:48:03.698Z,7.28
2023-04-12T15:50:33.570Z,5.93
2023-04-12T15:53:04.236Z,7.30
2023-04-12T15:55:33.924Z,6.95
2023-04-12T15:58:03.656Z,6.78
2023-04-12T16:00:33.719Z,6.35
2023-04-12T16:03:03.478Z,7.05
2023-04-12T16:05:35.411Z,6.22
2023-04-12T16:08:05.520Z,5.93
2023-04-12T16:10:37.158Z,5.95
2023-04-12T16:13:06.943Z,5.85
2023-04-12T16:15:36.648Z,5.55
2023-04-12T16:18:06.454Z,6.43
2023-04-12T16:20:37.253Z,6.22
2023-04-12T16:23:07.718Z,6.25
2023-04-12T16:25:40.283Z,5.95
2023-04-12T16:28:09.995Z,6.80
2023-04-12T16:30:42.956Z,6.47
2023-04-12T16:33:12.651Z,5.85
2023-04-12T16:35:42.696Z,6.15
2023-04-12T16:38:17.681Z,5.90
2023-04-12T16:40:47.744Z,6.50
2023-04-12T16:43:21.062Z,8.05
2023-04-12T16:45:50.808Z,5.72
2023-04-12T16:48:20.563Z,7.25
2023-04-12T16:50:50.740Z,6.38
2023-04-12T16:53:20.368Z,6.20
2023-04-12T16:55:50.386Z,6.88
2023-04-12T16:58:20.313Z,6.10
2023-04-12T17:00:51.013Z,7.78
2023-04-12T17:03:22.676Z,6.55
2023-04-12T17:05:53.007Z,6.55
2023-04-12T17:08:23.003Z,7.38
2023-04-12T17:10:52.688Z,7.13
2023-04-12T17:13:22.981Z,6.30
2023-04-12T17:15:52.672Z,6.78
2023-04-12T17:18:23.352Z,6.05
2023-04-12T17:20:54.290Z,6.70
2023-04-12T17:23:23.959Z,6.57
2023-04-12T17:25:53.662Z,7.07
2023-04-12T17:28:23.344Z,5.93
2023-04-12T17:30:53.063Z,6.60
2023-04-12T17:33:23.573Z,6.03
2023-04-12T17:35:53.191Z,5.97
2023-04-12T17:38:23.019Z,6.47
2023-04-12T17:40:53.133Z,6.53
2023-04-12T17:43:22.938Z,6.65
2023-04-12T17:45:52.602Z,6.38
2023-04-12T17:48:22.409Z,6.72
2023-04-12T17:50:52.177Z,7.50
2023-04-12T17:53:21.803Z,6.63
2023-04-12T17:55:51.496Z,6.68
2023-04-12T17:58:21.503Z,8.02
2023-04-12T18:00:51.840Z,6.82
2023-04-12T18:03:21.698Z,6.85
2023-04-12T18:05:51.474Z,7.28
2023-04-12T18:08:21.122Z,6.97
2023-04-12T18:10:51.220Z,7.15
2023-04-12T18:13:20.816Z,6.18
2023-04-12T18:15:50.487Z,6.85
2023-04-12T18:18:20.124Z,6.95
2023-04-12T18:20:49.809Z,7.82
2023-04-12T18:23:20.051Z,6.82
2023-04-12T18:25:50.150Z,7.63
2023-04-12T18:28:19.880Z,7.25
2023-04-12T18:30:50.525Z,6.63
2023-04-12T18:33:22.931Z,6.53
2023-04-12T18:35:52.819Z,6.72
2023-04-12T18:38:22.505Z,6.50
2023-04-12T18:40:52.990Z,7.35
2023-04-12T18:43:22.655Z,7.10
2023-04-12T18:45:52.914Z,7.30
2023-04-12T18:48:23.106Z,7.75
2023-04-12T18:50:52.852Z,6.88
2023-04-12T18:53:22.541Z,6.47
2023-04-12T18:55:52.449Z,6.75
2023-04-12T18:58:23.776Z,7.68
2023-04-12T19:00:56.287Z,6.45
2023-04-12T19:03:27.787Z,7.40
2023-04-12T19:05:58.852Z,7.20
2023-04-12T19:08:28.759Z,6.95
2023-04-12T19:10:59.068Z,7.53
2023-04-12T19:13:28.765Z,6.75
2023-04-12T19:15:58.683Z,6.50
2023-04-12T19:18:31.540Z,7.32
2023-04-12T19:21:01.165Z,6.97
2023-04-12T19:23:31.172Z,7.70
2023-04-12T19:26:02.199Z,6.45
2023-04-12T19:28:34.772Z,7.45
2023-04-12T19:31:10.843Z,7.43
2023-04-12T19:33:41.760Z,7.43
2023-04-12T19:36:12.224Z,6.80
2023-04-12T19:38:45.009Z,7.50
2023-04-12T19:41:14.960Z,8.05
2023-04-12T19:43:44.649Z,8.02
2023-04-12T19:46:14.956Z,6.13
2023-04-12T19:48:44.714Z,6.90
2023-04-12T19:51:16.813Z,7.32
2023-04-12T19:53:49.738Z,6.90
2023-04-12T19:56:19.409Z,6.95
2023-04-12T19:58:51.107Z,7.20
2023-04-12T20:01:20.909Z,6.35
2023-04-12T20:03:50.738Z,6.85
2023-04-12T20:06:20.570Z,5.95
2023-04-12T20:08:50.218Z,6.40
2023-04-12T20:11:25.652Z,6.03
2023-04-12T20:16:25.744Z,5.25
2023-04-12T20:18:59.217Z,4.78
2023-04-12T20:21:29.350Z,5.07
2023-04-12T20:24:00.886Z,4.40
2023-04-12T20:26:33.629Z,4.95
2023-04-12T20:29:03.377Z,4.30
2023-04-12T20:31:33.448Z,4.88
2023-04-12T20:34:03.576Z,4.57
2023-04-12T20:36:33.315Z,4.60
2023-04-12T20:39:03.048Z,4.00
2023-04-12T20:41:32.722Z,3.45
2023-04-12T20:44:02.488Z,4.28
2023-04-12T20:46:33.291Z,3.90
2023-04-12T20:49:06.755Z,4.10
2023-04-12T20:51:36.366Z,3.85
2023-04-12T20:54:06.078Z,4.20
2023-04-12T20:56:36.358Z,4.22
2023-04-12T20:59:06.065Z,3.60
2023-04-12T21:01:35.774Z,3.17
2023-04-12T21:04:07.761Z,3.90
2023-04-12T21:06:39.082Z,3.72
2023-04-12T21:09:08.837Z,3.78
2023-04-12T21:11:39.167Z,3.90
2023-04-12T21:14:10.388Z,4.10
2023-04-12T21:16:40.538Z,3.83
2023-04-12T21:19:11.597Z,3.33
2023-04-12T21:21:42.675Z,3.97
2023-04-12T21:24:12.294Z,4.20
2023-04-12T21:26:42.888Z,4.07
2023-04-12T21:29:14.609Z,4.03
2023-04-12T21:31:44.346Z,4.00
2023-04-12T21:34:14.255Z,3.65
2023-04-12T21:36:43.840Z,3.60
2023-04-12T21:39:13.848Z,4.03
2023-04-12T21:41:43.595Z,4.05
2023-04-12T21:44:14.477Z,3.72
2023-04-12T21:46:44.146Z,3.55
2023-04-12T21:49:13.930Z,3.88
2023-04-12T21:51:45.995Z,3.88
2023-04-12T21:54:17.570Z,3.90
2023-04-12T21:56:49.826Z,4.10
2023-04-12T21:59:19.753Z,3.70
2023-04-12T22:01:49.747Z,3.17
2023-04-12T22:04:19.629Z,3.83
2023-04-12T22:06:52.325Z,3.42
2023-04-12T22:09:21.949Z,3.55
2023-04-12T22:11:52.178Z,3.53
2023-04-12T22:14:24.708Z,3.47
2023-04-12T22:16:54.441Z,4.28
2023-04-12T22:19:24.180Z,3.28
2023-04-12T22:21:53.980Z,3.63
2023-04-12T22:24:24.940Z,3.33
2023-04-12T22:26:58.836Z,3.35
2023-04-12T22:29:28.514Z,3.55
2023-04-12T22:31:58.679Z,3.40
2023-04-12T22:34:28.648Z,2.90
2023-04-12T22:37:00.453Z,3.70
2023-04-12T22:39:30.218Z,3.60
2023-04-12T22:42:00.137Z,3.60
2023-04-12T22:44:30.800Z,3.67
2023-04-12T22:47:01.996Z,3.40
2023-04-12T22:49:37.344Z,3.22
2023-04-12T22:52:08.117Z,3.55
2023-04-12T22:54:37.907Z,3.10
2023-04-12T22:57:09.795Z,3.60
2023-04-12T22:59:39.516Z,3.60
2023-04-12T23:02:10.048Z,3.30
2023-04-12T23:04:39.816Z,4.25
2023-04-12T23:07:09.834Z,3.30
2023-04-12T23:09:41.409Z,3.28
2023-04-12T23:12:12.148Z,3.30
2023-04-12T23:14:41.956Z,3.70
2023-04-12T23:17:11.774Z,3.70
2023-04-12T23:19:41.456Z,3.08
2023-04-12T23:22:12.124Z,3.10
2023-04-12T23:24:42.642Z,3.70
2023-04-12T23:27:13.064Z,3.28
2023-04-12T23:29:44.102Z,3.88
2023-04-12T23:32:13.810Z,3.67
2023-04-12T23:34:45.533Z,3.40
2023-04-12T23:37:16.643Z,3.42
2023-04-12T23:39:48.846Z,3.13
2023-04-12T23:42:19.704Z,3.05
2023-04-12T23:44:52.315Z,3.72
2023-04-12T23:47:21.917Z,3.65
2023-04-12T23:49:55.011Z,3.83
2023-04-12T23:52:27.559Z,3.47
2023-04-12T23:54:57.340Z,3.63
2023-04-12T23:57:27.667Z,3.38
2023-04-12T23:59:57.763Z,3.83
